< < Back
Terminal Aerodrome Forecast


Current Version              Previous Versions:   1  2  3  4  5  6  7  8  9  

Terminal Aerodrome Forecast

306
FTUS44 KBMX 302321
TAFTCL
TAF
KTCL 302321Z 0100/0124 01004KT P6SM SKC
     FM011800 33007KT P6SM FEW090=

Latest METAR

006
SAUS70 KWBC 010800 RRJ
MTRTCL
METAR KTCL 010753Z AUTO 00000KT 10SM CLR 17/17 A2996 RMK AO2 SLP143
T01720167


USA.gov is the U.S. government's official web portal to all federal, state and local government web resources and services.